createdAt,value
2022-10-24T00:03:27.233Z,12.86
2022-10-24T00:08:28.808Z,12.82
2022-10-24T00:13:30.408Z,12.74
2022-10-24T00:18:31.967Z,12.60
2022-10-24T00:23:33.669Z,12.50
2022-10-24T00:28:37.036Z,12.52
2022-10-24T00:33:38.715Z,12.32
2022-10-24T00:38:41.214Z,12.34
2022-10-24T00:43:43.089Z,12.72
2022-10-24T00:48:52.196Z,12.68
2022-10-24T00:53:59.586Z,12.56
2022-10-24T00:59:03.939Z,12.50
2022-10-24T01:04:09.755Z,12.57
2022-10-24T01:09:27.967Z,12.53
2022-10-24T01:14:41.637Z,12.45
2022-10-24T01:20:34.419Z,12.55
2022-10-24T01:25:47.201Z,12.71
2022-10-24T01:31:10.071Z,12.67
2022-10-24T01:36:17.132Z,12.64
2022-10-24T01:41:25.231Z,12.62
2022-10-24T01:46:31.969Z,12.72
2022-10-24T01:51:34.334Z,12.54
2022-10-24T01:56:35.925Z,12.55
2022-10-24T02:01:39.476Z,12.40
2022-10-24T02:06:43.241Z,12.29
2022-10-24T02:11:47.827Z,12.16
2022-10-24T02:16:50.206Z,12.07
2022-10-24T02:22:12.839Z,12.16
2022-10-24T02:27:18.829Z,12.14
2022-10-24T02:32:29.221Z,12.00
2022-10-24T02:37:34.261Z,12.00
2022-10-24T02:42:38.506Z,11.76
2022-10-24T02:47:43.007Z,11.66
2022-10-24T02:52:45.221Z,11.58
2022-10-24T02:57:47.003Z,11.47
2022-10-24T03:02:48.640Z,11.49
2022-10-24T03:07:50.214Z,11.72
2022-10-24T03:12:51.927Z,11.60
2022-10-24T03:17:53.579Z,11.48
2022-10-24T03:22:55.173Z,11.42
2022-10-24T03:27:56.879Z,11.59
2022-10-24T03:32:58.500Z,11.47
2022-10-24T03:38:00.028Z,11.62
2022-10-24T03:43:02.144Z,11.23
2022-10-24T03:48:04.743Z,11.14
2022-10-24T03:53:06.569Z,11.52
2022-10-24T03:58:08.184Z,11.25
2022-10-24T04:03:09.921Z,10.97
2022-10-24T04:08:11.661Z,11.06
2022-10-24T04:13:13.337Z,10.83
2022-10-24T04:18:14.958Z,10.92
2022-10-24T04:23:16.537Z,11.19
2022-10-24T04:28:18.204Z,11.10
2022-10-24T04:33:19.877Z,10.70
2022-10-24T04:38:21.756Z,10.91
2022-10-24T04:43:24.110Z,10.78
2022-10-24T04:48:25.661Z,11.03
2022-10-24T04:53:27.274Z,11.42
2022-10-24T04:58:28.861Z,11.73
2022-10-24T05:03:30.494Z,11.80
2022-10-24T05:08:32.137Z,11.73
2022-10-24T05:13:36.623Z,11.63
2022-10-24T05:18:38.537Z,11.80
2022-10-24T05:23:40.594Z,12.09
2022-10-24T05:28:42.215Z,12.29
2022-10-24T05:33:43.775Z,12.28
2022-10-24T05:38:45.491Z,12.10
2022-10-24T05:43:47.106Z,11.88
2022-10-24T05:48:48.635Z,11.68
2022-10-24T05:53:50.168Z,11.60
2022-10-24T05:58:51.765Z,11.61
2022-10-24T06:03:53.288Z,11.69
2022-10-24T06:08:55.035Z,11.60
2022-10-24T06:13:56.766Z,11.50
2022-10-24T06:18:58.305Z,11.73
2022-10-24T06:23:59.872Z,11.83
2022-10-24T06:29:01.438Z,11.93
2022-10-24T06:34:02.967Z,12.50
2022-10-24T06:39:04.988Z,12.68
2022-10-24T06:44:10.825Z,12.70
2022-10-24T06:49:14.858Z,12.81
2022-10-24T06:54:16.856Z,12.84
2022-10-24T06:59:18.868Z,12.76
2022-10-24T07:04:20.542Z,12.74
2022-10-24T07:09:22.192Z,13.07
2022-10-24T07:14:25.855Z,13.25
2022-10-24T07:19:27.559Z,13.29
2022-10-24T07:24:29.143Z,13.47
2022-10-24T07:29:30.775Z,13.49
2022-10-24T07:34:32.393Z,13.63
2022-10-24T07:39:33.979Z,13.67
2022-10-24T07:44:35.490Z,13.83
2022-10-24T07:49:37.657Z,13.86
2022-10-24T07:54:39.153Z,13.87
2022-10-24T07:59:42.679Z,14.02
2022-10-24T08:04:45.208Z,14.18
2022-10-24T08:09:48.441Z,14.39
2022-10-24T08:14:52.121Z,14.56
2022-10-24T08:19:54.252Z,14.66
2022-10-24T08:24:55.773Z,14.76
2022-10-24T08:29:57.500Z,14.98
2022-10-24T08:34:59.281Z,15.06
2022-10-24T08:40:00.820Z,15.20
2022-10-24T08:45:02.941Z,15.04
2022-10-24T08:50:14.327Z,15.14
2022-10-24T08:55:44.370Z,15.27
2022-10-24T09:00:48.479Z,15.46
2022-10-24T09:05:54.092Z,15.52
2022-10-24T09:11:00.328Z,15.74
2022-10-24T09:16:02.231Z,15.86
2022-10-24T09:21:07.104Z,15.89
2022-10-24T09:26:16.389Z,15.86
2022-10-24T09:31:23.044Z,15.81
2022-10-24T09:36:25.058Z,15.79
2022-10-24T09:41:29.975Z,16.00
2022-10-24T09:46:45.941Z,16.14
2022-10-24T09:52:01.995Z,16.07
2022-10-24T10:02:26.047Z,16.78
2022-10-24T10:07:33.245Z,16.89
2022-10-24T10:12:38.575Z,16.87
2022-10-24T10:17:53.013Z,17.05
2022-10-24T10:22:54.530Z,17.19
2022-10-24T10:27:59.801Z,17.22
2022-10-24T10:33:12.903Z,17.31
2022-10-24T10:38:46.116Z,17.18
2022-10-24T10:44:16.828Z,17.04
2022-10-24T10:49:31.290Z,17.02
2022-10-24T10:54:59.086Z,17.37
2022-10-24T11:00:14.680Z,17.80
2022-10-24T11:05:32.633Z,18.15
2022-10-24T11:10:40.695Z,18.20
2022-10-24T11:15:46.913Z,17.98
2022-10-24T11:20:55.171Z,17.85
2022-10-24T11:26:06.552Z,18.04
2022-10-24T11:31:14.264Z,18.18
2022-10-24T11:36:28.726Z,17.80
2022-10-24T11:41:56.238Z,17.44
2022-10-24T11:47:16.824Z,17.57
2022-10-24T11:52:29.176Z,17.54
2022-10-24T11:57:32.277Z,17.59
2022-10-24T12:03:04.579Z,17.74
2022-10-24T12:08:40.929Z,17.52
2022-10-24T12:13:51.673Z,17.36
2022-10-24T12:19:06.025Z,17.18
2022-10-24T12:24:22.519Z,17.49
2022-10-24T12:29:27.159Z,17.57
2022-10-24T12:34:29.038Z,17.49
2022-10-24T12:39:34.219Z,17.53
2022-10-24T12:44:39.035Z,17.47
2022-10-24T12:49:41.790Z,17.77
2022-10-24T12:54:45.774Z,17.82
2022-10-24T12:59:50.223Z,17.97
2022-10-24T13:05:08.353Z,17.87
2022-10-24T13:10:24.028Z,17.73
2022-10-24T13:15:49.113Z,17.63
2022-10-24T13:21:17.985Z,17.47
2022-10-24T13:26:38.892Z,17.42
2022-10-24T13:31:44.243Z,17.46
2022-10-24T13:36:50.710Z,17.62
2022-10-24T13:42:06.602Z,17.89
2022-10-24T13:47:08.232Z,17.87
2022-10-24T13:52:18.866Z,17.87
2022-10-24T13:57:27.315Z,17.56
2022-10-24T14:02:33.129Z,17.48
2022-10-24T14:07:35.277Z,17.48
2022-10-24T14:12:39.369Z,17.48
2022-10-24T14:18:04.068Z,17.34
2022-10-24T14:23:35.636Z,17.26
2022-10-24T14:28:44.930Z,17.12
2022-10-24T14:33:49.407Z,17.13
2022-10-24T14:38:55.712Z,17.60
2022-10-24T14:43:58.914Z,17.78
2022-10-24T14:49:19.874Z,17.67
2022-10-24T14:54:30.280Z,17.62
2022-10-24T14:59:38.088Z,17.82
2022-10-24T15:04:45.789Z,17.92
2022-10-24T15:10:13.158Z,17.78
2022-10-24T15:15:40.733Z,17.66
2022-10-24T15:20:53.226Z,17.37
2022-10-24T15:26:17.432Z,17.02
2022-10-24T15:31:20.699Z,17.15
2022-10-24T15:36:33.690Z,17.02
2022-10-24T15:41:35.987Z,16.89
2022-10-24T15:46:40.461Z,16.87
2022-10-24T15:51:47.529Z,17.00
2022-10-24T15:56:51.997Z,16.69
2022-10-24T16:02:00.683Z,16.45
2022-10-24T16:07:02.836Z,16.40
2022-10-24T16:12:05.447Z,16.13
2022-10-24T16:17:07.330Z,16.19
2022-10-24T16:22:10.067Z,16.10
2022-10-24T16:27:12.104Z,16.15
2022-10-24T16:32:14.041Z,16.08
2022-10-24T16:37:16.958Z,16.18
2022-10-24T16:42:20.181Z,16.06
2022-10-24T16:47:21.742Z,15.75
2022-10-24T16:52:24.114Z,15.54
2022-10-24T16:57:26.096Z,15.54
2022-10-24T17:02:27.791Z,15.47
2022-10-24T17:07:29.319Z,15.41
2022-10-24T17:12:31.158Z,15.70
2022-10-24T17:17:33.851Z,15.86
2022-10-24T17:22:36.721Z,15.84
2022-10-24T17:27:38.389Z,15.83
2022-10-24T17:32:40.022Z,15.66
2022-10-24T17:38:05.508Z,15.45
2022-10-24T17:43:17.248Z,15.58
2022-10-24T17:48:19.260Z,15.88
2022-10-24T17:53:20.802Z,15.88
2022-10-24T17:58:22.785Z,15.70
2022-10-24T18:03:24.377Z,15.66
2022-10-24T18:08:26.132Z,15.52
2022-10-24T18:13:28.165Z,15.41
2022-10-24T18:18:29.779Z,15.24
2022-10-24T18:23:31.298Z,15.10
2022-10-24T18:28:35.813Z,14.87
2022-10-24T18:33:38.554Z,14.86
2022-10-24T18:38:40.841Z,14.85
2022-10-24T18:43:42.533Z,14.94
2022-10-24T18:48:44.321Z,15.13
2022-10-24T18:53:46.713Z,15.23
2022-10-24T18:58:49.691Z,15.33
2022-10-24T19:03:54.093Z,15.26
2022-10-24T19:08:55.911Z,15.04
2022-10-24T19:13:57.722Z,15.14
2022-10-24T19:19:01.574Z,15.02
2022-10-24T19:24:03.371Z,15.14
2022-10-24T19:29:05.935Z,14.98
2022-10-24T19:34:09.598Z,14.93
2022-10-24T19:39:11.243Z,14.82
2022-10-24T19:44:14.451Z,14.81
2022-10-24T19:49:16.075Z,14.69
2022-10-24T19:54:17.741Z,14.89
2022-10-24T19:59:19.300Z,14.80
2022-10-24T20:04:20.994Z,14.88
2022-10-24T20:09:22.695Z,14.99
2022-10-24T20:14:24.592Z,15.07
2022-10-24T20:19:26.345Z,15.14
2022-10-24T20:24:29.320Z,15.27
2022-10-24T20:29:30.846Z,15.36
2022-10-24T20:34:32.425Z,15.47
2022-10-24T20:39:35.311Z,15.09
2022-10-24T20:44:37.133Z,15.10
2022-10-24T20:49:38.655Z,15.10
2022-10-24T20:54:40.629Z,15.09
2022-10-24T20:59:42.335Z,15.29
2022-10-24T21:04:43.861Z,15.09
2022-10-24T21:09:45.402Z,14.97
2022-10-24T21:14:46.912Z,14.95
2022-10-24T21:19:48.556Z,14.84
2022-10-24T21:24:50.118Z,14.61
2022-10-24T21:29:51.693Z,14.54
2022-10-24T21:34:53.321Z,14.29
2022-10-24T21:39:54.852Z,14.34
2022-10-24T21:44:56.497Z,14.41
2022-10-24T21:49:58.068Z,14.17
2022-10-24T21:54:59.653Z,13.91
2022-10-24T22:00:01.250Z,13.75
2022-10-24T22:05:02.835Z,13.60
2022-10-24T22:10:04.633Z,13.53
2022-10-24T22:15:06.705Z,13.34
2022-10-24T22:20:08.653Z,13.26
2022-10-24T22:25:10.259Z,12.97
2022-10-24T22:30:12.147Z,12.76
2022-10-24T22:35:14.548Z,12.58
2022-10-24T22:40:27.675Z,12.50
2022-10-24T22:45:29.633Z,12.83
2022-10-24T22:50:44.729Z,12.55
2022-10-24T22:56:11.847Z,12.41
2022-10-24T23:01:56.914Z,12.45
2022-10-24T23:07:09.995Z,12.62
2022-10-24T23:12:15.675Z,12.49
2022-10-24T23:17:26.487Z,12.39
2022-10-24T23:22:31.341Z,12.27
2022-10-24T23:27:36.083Z,12.40
2022-10-24T23:32:38.930Z,12.31
2022-10-24T23:37:46.261Z,12.28
2022-10-24T23:42:49.458Z,12.35
2022-10-24T23:48:10.068Z,12.31
2022-10-24T23:53:48.937Z,12.34
2022-10-24T23:58:51.285Z,12.27
